DLH47 EDDV-EDDF
Flight info
| Callsign | DLH47 |
|---|---|
| Flight time | 0h 35m |
| Altitude | 17000 |
| Route | TOLTA1F TOLTA T154 ROBAR T152 KERAX KERAX5A |
| Aircraft | A319/M-SDE3FGHIRWY/LB1 |
Departure
| Time | 2026-05-03 20:43 |
|---|---|
| Airport | Hannover Airport (EDDV) |
Arrival
| Time | 2026-05-03 21:18 |
|---|---|
| Airport | Frankfurt Main Airport (EDDF) |
| Time | Latitude | Longitude | Altitude | Speed | Heading |
|---|---|---|---|---|---|
| 2026-05-03 20:15 | 52.45845 | 9.69324 | 179 ft | 0 kts | 48° |
| 2026-05-03 20:34 | 52.45843 | 9.69321 | 179 ft | 2 kts | 47° |
| 2026-05-03 20:34 | 52.45824 | 9.69294 | 179 ft | 4 kts | 23° |
| 2026-05-03 20:34 | 52.45799 | 9.69286 | 178 ft | 4 kts | 351° |
| 2026-05-03 20:34 | 52.45775 | 9.69300 | 178 ft | 4 kts | 320° |
| 2026-05-03 20:35 | 52.45774 | 9.69301 | 178 ft | 0 kts | 319° |
| 2026-05-03 20:37 | 52.45775 | 9.69298 | 178 ft | 1 kts | 315° |
| 2026-05-03 20:37 | 52.45774 | 9.69265 | 178 ft | 8 kts | 258° |
| 2026-05-03 20:38 | 52.45730 | 9.69158 | 178 ft | 9 kts | 207° |
| 2026-05-03 20:38 | 52.45661 | 9.69145 | 179 ft | 10 kts | 182° |
| 2026-05-03 20:38 | 52.45619 | 9.69210 | 179 ft | 10 kts | 94° |
| 2026-05-03 20:38 | 52.45617 | 9.69309 | 179 ft | 17 kts | 93° |
| 2026-05-03 20:39 | 52.45611 | 9.69541 | 179 ft | 21 kts | 92° |
| 2026-05-03 20:39 | 52.45603 | 9.69783 | 179 ft | 21 kts | 92° |
| 2026-05-03 20:39 | 52.45597 | 9.70027 | 179 ft | 22 kts | 92° |
| 2026-05-03 20:39 | 52.45590 | 9.70273 | 179 ft | 21 kts | 92° |
| 2026-05-03 20:40 | 52.45583 | 9.70510 | 179 ft | 21 kts | 92° |
| 2026-05-03 20:40 | 52.45577 | 9.70728 | 179 ft | 18 kts | 92° |
| 2026-05-03 20:40 | 52.45571 | 9.70931 | 179 ft | 18 kts | 92° |
| 2026-05-03 20:40 | 52.45535 | 9.71079 | 179 ft | 14 kts | 145° |
| 2026-05-03 20:41 | 52.45450 | 9.71101 | 182 ft | 11 kts | 184° |
| 2026-05-03 20:41 | 52.45405 | 9.71052 | 191 ft | 7 kts | 252° |
| 2026-05-03 20:41 | 52.45404 | 9.71007 | 186 ft | 0 kts | 272° |
| 2026-05-03 20:42 | 52.45405 | 9.71003 | 186 ft | 2 kts | 272° |
| 2026-05-03 20:42 | 52.45410 | 9.70749 | 184 ft | 60 kts | 272° |
| 2026-05-03 20:42 | 52.45442 | 9.69663 | 183 ft | 128 kts | 272° |
| 2026-05-03 20:42 | 52.45493 | 9.68013 | 543 ft | 148 kts | 270° |
| 2026-05-03 20:43 | 52.45537 | 9.66345 | 1305 ft | 146 kts | 268° |
| 2026-05-03 20:43 | 52.45574 | 9.64640 | 1831 ft | 161 kts | 268° |
| 2026-05-03 20:43 | 52.45609 | 9.62682 | 2223 ft | 185 kts | 269° |
| 2026-05-03 20:43 | 52.45650 | 9.60520 | 3008 ft | 191 kts | 268° |
| 2026-05-03 20:44 | 52.45705 | 9.58319 | 3869 ft | 196 kts | 269° |
| 2026-05-03 20:44 | 52.45770 | 9.56083 | 4779 ft | 197 kts | 266° |
| 2026-05-03 20:44 | 52.45464 | 9.53923 | 5554 ft | 198 kts | 238° |
| 2026-05-03 20:44 | 52.44490 | 9.52332 | 6345 ft | 204 kts | 213° |
| 2026-05-03 20:45 | 52.43244 | 9.51179 | 7157 ft | 207 kts | 211° |
| 2026-05-03 20:45 | 52.41979 | 9.50011 | 8009 ft | 210 kts | 212° |
| 2026-05-03 20:45 | 52.40701 | 9.48814 | 8839 ft | 214 kts | 212° |
| 2026-05-03 20:45 | 52.39402 | 9.47589 | 9678 ft | 217 kts | 212° |
| 2026-05-03 20:46 | 52.38080 | 9.46341 | 10448 ft | 221 kts | 212° |
| 2026-05-03 20:46 | 52.36738 | 9.45074 | 11212 ft | 225 kts | 212° |
| 2026-05-03 20:46 | 52.35378 | 9.43786 | 11998 ft | 228 kts | 212° |
| 2026-05-03 20:46 | 52.33984 | 9.42523 | 12796 ft | 232 kts | 206° |
| 2026-05-03 20:47 | 52.32399 | 9.41853 | 13518 ft | 244 kts | 189° |
| 2026-05-03 20:47 | 52.30608 | 9.41975 | 13805 ft | 271 kts | 178° |
| 2026-05-03 20:47 | 52.28647 | 9.42277 | 14047 ft | 295 kts | 178° |
| 2026-05-03 20:47 | 52.26524 | 9.42603 | 14250 ft | 318 kts | 178° |
| 2026-05-03 20:48 | 52.24238 | 9.42958 | 14406 ft | 342 kts | 178° |
| 2026-05-03 20:48 | 52.21813 | 9.43334 | 14719 ft | 357 kts | 178° |
| 2026-05-03 20:48 | 52.19319 | 9.43719 | 15326 ft | 362 kts | 178° |
| 2026-05-03 20:48 | 52.16796 | 9.44104 | 15995 ft | 365 kts | 178° |
| 2026-05-03 20:49 | 52.14256 | 9.44488 | 16621 ft | 368 kts | 179° |
| 2026-05-03 20:49 | 52.11694 | 9.44871 | 16876 ft | 370 kts | 179° |
| 2026-05-03 20:49 | 52.09093 | 9.45258 | 16947 ft | 385 kts | 179° |
| 2026-05-03 20:49 | 52.06359 | 9.45660 | 16951 ft | 403 kts | 178° |
| 2026-05-03 20:50 | 52.03546 | 9.46079 | 16951 ft | 409 kts | 178° |
| 2026-05-03 20:50 | 52.00746 | 9.46500 | 16947 ft | 410 kts | 178° |
| 2026-05-03 20:50 | 51.97902 | 9.46927 | 16947 ft | 410 kts | 178° |
| 2026-05-03 20:50 | 51.95057 | 9.47353 | 16948 ft | 411 kts | 178° |
| 2026-05-03 20:51 | 51.92210 | 9.47778 | 16954 ft | 411 kts | 178° |
| 2026-05-03 20:51 | 51.89368 | 9.48200 | 16947 ft | 410 kts | 178° |
| 2026-05-03 20:51 | 51.86519 | 9.48620 | 16953 ft | 411 kts | 178° |
| 2026-05-03 20:51 | 51.83673 | 9.49039 | 16953 ft | 411 kts | 178° |
| 2026-05-03 20:52 | 51.80820 | 9.49457 | 16957 ft | 411 kts | 178° |
| 2026-05-03 20:52 | 51.77972 | 9.49874 | 16964 ft | 411 kts | 178° |
| 2026-05-03 20:52 | 51.75126 | 9.50291 | 16967 ft | 411 kts | 178° |
| 2026-05-03 20:52 | 51.72271 | 9.50608 | 16964 ft | 409 kts | 184° |
| 2026-05-03 20:53 | 51.69455 | 9.50194 | 16964 ft | 405 kts | 193° |
| 2026-05-03 20:53 | 51.66760 | 9.48976 | 16966 ft | 401 kts | 203° |
| 2026-05-03 20:53 | 51.64263 | 9.47018 | 16961 ft | 399 kts | 212° |
| 2026-05-03 20:53 | 51.61875 | 9.44733 | 16965 ft | 399 kts | 212° |
| 2026-05-03 20:54 | 51.59488 | 9.42462 | 16968 ft | 399 kts | 212° |
| 2026-05-03 20:54 | 51.54704 | 9.37935 | 16972 ft | 399 kts | 212° |
| 2026-05-03 20:54 | 51.52341 | 9.35710 | 16964 ft | 399 kts | 212° |
| 2026-05-03 20:55 | 51.49948 | 9.33463 | 16961 ft | 399 kts | 212° |
| 2026-05-03 20:55 | 51.47554 | 9.31217 | 16962 ft | 399 kts | 212° |
| 2026-05-03 20:55 | 51.45118 | 9.29065 | 16961 ft | 400 kts | 206° |
| 2026-05-03 20:55 | 51.42487 | 9.27579 | 16956 ft | 403 kts | 196° |
| 2026-05-03 20:56 | 51.39712 | 9.26909 | 16959 ft | 407 kts | 186° |
| 2026-05-03 20:56 | 51.36867 | 9.26960 | 16958 ft | 409 kts | 181° |
| 2026-05-03 20:56 | 51.34027 | 9.27103 | 16957 ft | 409 kts | 181° |
| 2026-05-03 20:56 | 51.31181 | 9.27240 | 16976 ft | 409 kts | 181° |
| 2026-05-03 20:57 | 51.28329 | 9.27372 | 16981 ft | 409 kts | 181° |
| 2026-05-03 20:57 | 51.25481 | 9.27503 | 16984 ft | 410 kts | 181° |
| 2026-05-03 20:57 | 51.22635 | 9.27633 | 16992 ft | 410 kts | 181° |
| 2026-05-03 20:57 | 51.19786 | 9.27760 | 16985 ft | 410 kts | 181° |
| 2026-05-03 20:58 | 51.16933 | 9.27889 | 16988 ft | 410 kts | 181° |
| 2026-05-03 20:58 | 51.14080 | 9.28020 | 16991 ft | 410 kts | 181° |
| 2026-05-03 20:58 | 51.11230 | 9.28152 | 16994 ft | 410 kts | 181° |
| 2026-05-03 20:58 | 51.08381 | 9.28213 | 16997 ft | 409 kts | 183° |
| 2026-05-03 20:59 | 51.05539 | 9.28171 | 16999 ft | 409 kts | 184° |
| 2026-05-03 20:59 | 51.02696 | 9.28072 | 17000 ft | 409 kts | 184° |
| 2026-05-03 20:59 | 50.99855 | 9.27950 | 16997 ft | 408 kts | 184° |
| 2026-05-03 20:59 | 50.97011 | 9.27829 | 16991 ft | 407 kts | 184° |
| 2026-05-03 21:00 | 50.94229 | 9.27707 | 16719 ft | 394 kts | 185° |
| 2026-05-03 21:00 | 50.92425 | 9.27621 | 16401 ft | 389 kts | 185° |
| 2026-05-03 21:00 | 50.88829 | 9.27432 | 15675 ft | 385 kts | 185° |
| 2026-05-03 21:00 | 50.86155 | 9.27286 | 15223 ft | 384 kts | 185° |
| 2026-05-03 21:01 | 50.83493 | 9.27142 | 14788 ft | 383 kts | 185° |
| 2026-05-03 21:01 | 50.80836 | 9.26996 | 14354 ft | 381 kts | 185° |
| 2026-05-03 21:01 | 50.78189 | 9.26848 | 13927 ft | 380 kts | 185° |
| 2026-05-03 21:01 | 50.75553 | 9.26705 | 13465 ft | 378 kts | 184° |
| 2026-05-03 21:02 | 50.72969 | 9.26571 | 13000 ft | 375 kts | 184° |
| 2026-05-03 21:02 | 50.70373 | 9.26439 | 12528 ft | 372 kts | 184° |
| 2026-05-03 21:02 | 50.67802 | 9.26309 | 12064 ft | 368 kts | 185° |
| 2026-05-03 21:02 | 50.65254 | 9.26175 | 11616 ft | 364 kts | 185° |
| 2026-05-03 21:03 | 50.62732 | 9.26039 | 11173 ft | 361 kts | 185° |
| 2026-05-03 21:03 | 50.60225 | 9.25905 | 10966 ft | 359 kts | 185° |
| 2026-05-03 21:03 | 50.57730 | 9.25773 | 10984 ft | 359 kts | 185° |
| 2026-05-03 21:03 | 50.55231 | 9.25637 | 10984 ft | 359 kts | 185° |
| 2026-05-03 21:04 | 50.52790 | 9.25510 | 10984 ft | 340 kts | 185° |
| 2026-05-03 21:04 | 50.50504 | 9.25309 | 10924 ft | 319 kts | 189° |
| 2026-05-03 21:04 | 50.48374 | 9.24683 | 10681 ft | 306 kts | 196° |
| 2026-05-03 21:04 | 50.46311 | 9.23939 | 10272 ft | 303 kts | 195° |
| 2026-05-03 21:05 | 50.44265 | 9.23227 | 9839 ft | 300 kts | 195° |
| 2026-05-03 21:05 | 50.42234 | 9.22519 | 9386 ft | 297 kts | 195° |
| 2026-05-03 21:05 | 50.40261 | 9.21836 | 9251 ft | 284 kts | 195° |
| 2026-05-03 21:05 | 50.38368 | 9.21187 | 9115 ft | 272 kts | 195° |
| 2026-05-03 21:06 | 50.36553 | 9.20570 | 8907 ft | 264 kts | 195° |
| 2026-05-03 21:06 | 50.34771 | 9.19969 | 8560 ft | 261 kts | 195° |
| 2026-05-03 21:06 | 50.33001 | 9.19373 | 8171 ft | 260 kts | 195° |
| 2026-05-03 21:06 | 50.31240 | 9.18784 | 7787 ft | 258 kts | 195° |
| 2026-05-03 21:07 | 50.29489 | 9.18202 | 7411 ft | 256 kts | 195° |
| 2026-05-03 21:07 | 50.27761 | 9.17635 | 7155 ft | 248 kts | 195° |
| 2026-05-03 21:07 | 50.26112 | 9.17105 | 7030 ft | 236 kts | 195° |
| 2026-05-03 21:07 | 50.24544 | 9.16607 | 6906 ft | 224 kts | 195° |
| 2026-05-03 21:08 | 50.23040 | 9.16140 | 6697 ft | 217 kts | 194° |
| 2026-05-03 21:08 | 50.21569 | 9.15654 | 6367 ft | 215 kts | 199° |
| 2026-05-03 21:08 | 50.20317 | 9.14488 | 6049 ft | 209 kts | 224° |
| 2026-05-03 21:08 | 50.19262 | 9.12924 | 5674 ft | 209 kts | 224° |
| 2026-05-03 21:09 | 50.18323 | 9.11201 | 5297 ft | 210 kts | 239° |
| 2026-05-03 21:09 | 50.17751 | 9.09104 | 5021 ft | 209 kts | 250° |
| 2026-05-03 21:09 | 50.17252 | 9.06944 | 5005 ft | 213 kts | 249° |
| 2026-05-03 21:09 | 50.16735 | 9.04768 | 5004 ft | 214 kts | 248° |
| 2026-05-03 21:10 | 50.16209 | 9.02594 | 5004 ft | 215 kts | 248° |
| 2026-05-03 21:10 | 50.15692 | 9.00407 | 5006 ft | 215 kts | 249° |
| 2026-05-03 21:10 | 50.15180 | 8.98222 | 5006 ft | 213 kts | 249° |
| 2026-05-03 21:10 | 50.14691 | 8.96130 | 5005 ft | 197 kts | 249° |
| 2026-05-03 21:11 | 50.14240 | 8.94200 | 5014 ft | 181 kts | 249° |
| 2026-05-03 21:11 | 50.13819 | 8.92408 | 5015 ft | 173 kts | 248° |
| 2026-05-03 21:11 | 50.13408 | 8.90654 | 5009 ft | 172 kts | 248° |
| 2026-05-03 21:11 | 50.13003 | 8.88934 | 5009 ft | 171 kts | 248° |
| 2026-05-03 21:12 | 50.12594 | 8.87193 | 5000 ft | 171 kts | 248° |
| 2026-05-03 21:12 | 50.12178 | 8.85425 | 4865 ft | 171 kts | 249° |
| 2026-05-03 21:12 | 50.11770 | 8.83688 | 4647 ft | 171 kts | 249° |
| 2026-05-03 21:12 | 50.11360 | 8.81950 | 4419 ft | 171 kts | 249° |
| 2026-05-03 21:13 | 50.10951 | 8.80214 | 4178 ft | 171 kts | 249° |
| 2026-05-03 21:13 | 50.10542 | 8.78482 | 3936 ft | 170 kts | 249° |
| 2026-05-03 21:13 | 50.10142 | 8.76786 | 3700 ft | 169 kts | 249° |
| 2026-05-03 21:13 | 50.09738 | 8.75077 | 3468 ft | 168 kts | 250° |
| 2026-05-03 21:14 | 50.09334 | 8.73371 | 3224 ft | 168 kts | 250° |
| 2026-05-03 21:14 | 50.08930 | 8.71663 | 2984 ft | 168 kts | 250° |
| 2026-05-03 21:14 | 50.08526 | 8.69955 | 2749 ft | 168 kts | 250° |
| 2026-05-03 21:14 | 50.08122 | 8.68253 | 2504 ft | 168 kts | 250° |
| 2026-05-03 21:15 | 50.07727 | 8.66588 | 2273 ft | 157 kts | 250° |
| 2026-05-03 21:15 | 50.07375 | 8.65107 | 2060 ft | 137 kts | 250° |
| 2026-05-03 21:15 | 50.07055 | 8.63760 | 1868 ft | 129 kts | 250° |
| 2026-05-03 21:15 | 50.06748 | 8.62470 | 1695 ft | 126 kts | 249° |
| 2026-05-03 21:16 | 50.06449 | 8.61200 | 1517 ft | 124 kts | 249° |
| 2026-05-03 21:16 | 50.06151 | 8.59936 | 1314 ft | 124 kts | 249° |
| 2026-05-03 21:16 | 50.05849 | 8.58671 | 1136 ft | 125 kts | 248° |
| 2026-05-03 21:16 | 50.05552 | 8.57405 | 948 ft | 125 kts | 247° |
| 2026-05-03 21:17 | 50.05250 | 8.56133 | 785 ft | 126 kts | 247° |
| 2026-05-03 21:17 | 50.05045 | 8.55292 | 664 ft | 126 kts | 248° |
| 2026-05-03 21:17 | 50.04632 | 8.53570 | 438 ft | 128 kts | 248° |
| 2026-05-03 21:17 | 50.04331 | 8.52319 | 347 ft | 112 kts | 249° |
| 2026-05-03 21:18 | 50.04122 | 8.51447 | 330 ft | 54 kts | 249° |
| 2026-05-03 21:18 | 50.04030 | 8.51117 | 327 ft | 26 kts | 237° |
| 2026-05-03 21:18 | 50.03908 | 8.50919 | 326 ft | 22 kts | 219° |
| 2026-05-03 21:18 | 50.03837 | 8.50835 | 329 ft | 10 kts | 201° |
| 2026-05-03 21:19 | 50.03814 | 8.50834 | 332 ft | 0 kts | 173° |
| 2026-05-03 21:19 | 50.03796 | 8.50848 | 332 ft | 7 kts | 145° |
| 2026-05-03 21:19 | 50.03782 | 8.50926 | 333 ft | 10 kts | 79° |
| 2026-05-03 21:20 | 50.03812 | 8.51052 | 333 ft | 15 kts | 69° |
| 2026-05-03 21:20 | 50.03847 | 8.51201 | 336 ft | 15 kts | 71° |
| 2026-05-03 21:20 | 50.03886 | 8.51361 | 332 ft | 17 kts | 69° |
| 2026-05-03 21:20 | 50.03929 | 8.51542 | 334 ft | 18 kts | 69° |
| 2026-05-03 21:21 | 50.03972 | 8.51722 | 334 ft | 18 kts | 69° |
| 2026-05-03 21:21 | 50.04019 | 8.51916 | 336 ft | 20 kts | 70° |
| 2026-05-03 21:21 | 50.04068 | 8.52120 | 336 ft | 20 kts | 69° |
| 2026-05-03 21:21 | 50.04113 | 8.52311 | 353 ft | 18 kts | 70° |
| 2026-05-03 21:22 | 50.04160 | 8.52507 | 354 ft | 20 kts | 68° |
| 2026-05-03 21:22 | 50.04212 | 8.52722 | 356 ft | 22 kts | 69° |
| 2026-05-03 21:22 | 50.04266 | 8.52952 | 353 ft | 23 kts | 70° |
| 2026-05-03 21:22 | 50.04322 | 8.53182 | 366 ft | 20 kts | 70° |
| 2026-05-03 21:23 | 50.04365 | 8.53364 | 370 ft | 17 kts | 69° |
| 2026-05-03 21:23 | 50.04397 | 8.53537 | 375 ft | 16 kts | 84° |
| 2026-05-03 21:23 | 50.04410 | 8.53732 | 375 ft | 20 kts | 84° |
| 2026-05-03 21:23 | 50.04423 | 8.53939 | 375 ft | 19 kts | 84° |
| 2026-05-03 21:24 | 50.04437 | 8.54148 | 375 ft | 19 kts | 83° |
| 2026-05-03 21:24 | 50.04450 | 8.54345 | 374 ft | 17 kts | 84° |
| 2026-05-03 21:24 | 50.04443 | 8.54531 | 367 ft | 19 kts | 105° |
| 2026-05-03 21:24 | 50.04379 | 8.54699 | 361 ft | 17 kts | 135° |
| 2026-05-03 21:25 | 50.04290 | 8.54785 | 355 ft | 13 kts | 159° |
| 2026-05-03 21:25 | 50.04202 | 8.54832 | 356 ft | 13 kts | 161° |
| 2026-05-03 21:25 | 50.04118 | 8.54882 | 356 ft | 12 kts | 159° |
| 2026-05-03 21:25 | 50.04058 | 8.54917 | 355 ft | 8 kts | 160° |
| 2026-05-03 21:26 | 50.04005 | 8.54925 | 352 ft | 9 kts | 205° |
| 2026-05-03 21:26 | 50.03970 | 8.54812 | 353 ft | 13 kts | 250° |
| 2026-05-03 21:26 | 50.03935 | 8.54667 | 356 ft | 15 kts | 250° |
| 2026-05-03 21:26 | 50.03896 | 8.54504 | 348 ft | 16 kts | 249° |
| 2026-05-03 21:27 | 50.03850 | 8.54348 | 351 ft | 15 kts | 235° |
| 2026-05-03 21:27 | 50.03812 | 8.54260 | 345 ft | 14 kts | 240° |
| 2026-05-03 21:27 | 50.03780 | 8.54141 | 351 ft | 9 kts | 249° |
| 2026-05-03 21:27 | 50.03752 | 8.54107 | 350 ft | 5 kts | 177° |
| 2026-05-03 21:28 | 50.03715 | 8.54129 | 345 ft | 5 kts | 159° |
| 2026-05-03 21:28 | 50.03701 | 8.54137 | 349 ft | 0 kts | 160° |